sensor_id;sensor_type;location;lat;lon;timestamp;temperature;humidity
23562;DHT22;11959;49.418;8.728;2022-08-11T00:00:00;19.80;83.60
23562;DHT22;11959;49.418;8.728;2022-08-11T00:02:48;19.80;82.50
23562;DHT22;11959;49.418;8.728;2022-08-11T00:05:17;19.80;82.30
23562;DHT22;11959;49.418;8.728;2022-08-11T00:10:16;19.70;82.20
23562;DHT22;11959;49.418;8.728;2022-08-11T00:12:43;19.70;83.20
23562;DHT22;11959;49.418;8.728;2022-08-11T00:15:15;19.70;83.60
23562;DHT22;11959;49.418;8.728;2022-08-11T00:17:41;19.70;85.40
23562;DHT22;11959;49.418;8.728;2022-08-11T00:20:11;19.60;86.10
23562;DHT22;11959;49.418;8.728;2022-08-11T00:22:41;19.60;86.50
23562;DHT22;11959;49.418;8.728;2022-08-11T00:25:16;19.60;87.00
23562;DHT22;11959;49.418;8.728;2022-08-11T00:27:43;19.60;86.60
23562;DHT22;11959;49.418;8.728;2022-08-11T00:30:11;19.50;85.50
23562;DHT22;11959;49.418;8.728;2022-08-11T00:32:40;19.50;85.60
23562;DHT22;11959;49.418;8.728;2022-08-11T00:35:10;19.50;85.00
23562;DHT22;11959;49.418;8.728;2022-08-11T00:37:37;19.50;84.70
23562;DHT22;11959;49.418;8.728;2022-08-11T00:40:07;19.40;85.40
23562;DHT22;11959;49.418;8.728;2022-08-11T00:43:06;19.40;85.70
23562;DHT22;11959;49.418;8.728;2022-08-11T00:45:44;19.40;85.60
23562;DHT22;11959;49.418;8.728;2022-08-11T00:48:32;19.30;86.90
23562;DHT22;11959;49.418;8.728;2022-08-11T00:54:05;19.30;84.10
23562;DHT22;11959;49.418;8.728;2022-08-11T01:35:34;19.20;84.10
23562;DHT22;11959;49.418;8.728;2022-08-11T01:47:05;19.00;85.50
23562;DHT22;11959;49.418;8.728;2022-08-11T01:49:54;19.00;86.00
23562;DHT22;11959;49.418;8.728;2022-08-11T01:52:35;19.00;86.30
23562;DHT22;11959;49.418;8.728;2022-08-11T01:57:43;18.90;85.70
23562;DHT22;11959;49.418;8.728;2022-08-11T02:00:13;18.90;85.50
23562;DHT22;11959;49.418;8.728;2022-08-11T02:03:00;18.90;85.50
23562;DHT22;11959;49.418;8.728;2022-08-11T02:10:51;18.90;85.40
23562;DHT22;11959;49.418;8.728;2022-08-11T02:22:34;19.00;84.00
23562;DHT22;11959;49.418;8.728;2022-08-11T02:33:48;19.10;84.70
23562;DHT22;11959;49.418;8.728;2022-08-11T02:36:20;19.10;84.70
23562;DHT22;11959;49.418;8.728;2022-08-11T02:39:02;19.10;84.70
23562;DHT22;11959;49.418;8.728;2022-08-11T02:44:56;19.00;85.10
23562;DHT22;11959;49.418;8.728;2022-08-11T02:50:39;18.90;85.90
23562;DHT22;11959;49.418;8.728;2022-08-11T02:53:31;18.90;85.80
23562;DHT22;11959;49.418;8.728;2022-08-11T02:56:18;18.80;86.10
23562;DHT22;11959;49.418;8.728;2022-08-11T02:59:03;18.80;86.20
23562;DHT22;11959;49.418;8.728;2022-08-11T03:01:57;18.80;86.10
23562;DHT22;11959;49.418;8.728;2022-08-11T03:16:31;18.60;87.10
23562;DHT22;11959;49.418;8.728;2022-08-11T03:19:04;18.50;87.10
23562;DHT22;11959;49.418;8.728;2022-08-11T03:21:45;18.50;87.40
23562;DHT22;11959;49.418;8.728;2022-08-11T03:24:20;18.40;87.50
23562;DHT22;11959;49.418;8.728;2022-08-11T03:29:22;18.30;87.70
23562;DHT22;11959;49.418;8.728;2022-08-11T03:32:18;18.30;88.30
23562;DHT22;11959;49.418;8.728;2022-08-11T03:34:47;18.30;89.90
23562;DHT22;11959;49.418;8.728;2022-08-11T03:37:40;18.20;90.10
23562;DHT22;11959;49.418;8.728;2022-08-11T03:40:40;18.10;89.70
23562;DHT22;11959;49.418;8.728;2022-08-11T03:43:46;18.10;89.70
23562;DHT22;11959;49.418;8.728;2022-08-11T03:47:00;18.10;89.60
23562;DHT22;11959;49.418;8.728;2022-08-11T04:24:52;17.80;91.10
23562;DHT22;11959;49.418;8.728;2022-08-11T04:57:19;17.70;91.70
23562;DHT22;11959;49.418;8.728;2022-08-11T05:00:09;17.70;91.80
23562;DHT22;11959;49.418;8.728;2022-08-11T05:03:34;17.70;91.70
23562;DHT22;11959;49.418;8.728;2022-08-11T05:14:51;17.90;92.10
23562;DHT22;11959;49.418;8.728;2022-08-11T05:17:59;17.90;92.00
23562;DHT22;11959;49.418;8.728;2022-08-11T05:20:52;18.00;91.90
23562;DHT22;11959;49.418;8.728;2022-08-11T05:23:45;18.00;92.30
23562;DHT22;11959;49.418;8.728;2022-08-11T05:26:42;18.10;92.90
23562;DHT22;11959;49.418;8.728;2022-08-11T05:32:22;18.10;92.90
23562;DHT22;11959;49.418;8.728;2022-08-11T05:35:07;18.20;93.10
23562;DHT22;11959;49.418;8.728;2022-08-11T05:37:41;18.30;93.10
23562;DHT22;11959;49.418;8.728;2022-08-11T05:40:12;18.30;93.30
23562;DHT22;11959;49.418;8.728;2022-08-11T05:43:01;18.40;93.40
23562;DHT22;11959;49.418;8.728;2022-08-11T05:45:57;18.40;93.20
23562;DHT22;11959;49.418;8.728;2022-08-11T05:48:42;18.50;93.20
23562;DHT22;11959;49.418;8.728;2022-08-11T05:51:38;18.50;92.40
23562;DHT22;11959;49.418;8.728;2022-08-11T05:54:26;18.70;93.00
23562;DHT22;11959;49.418;8.728;2022-08-11T05:57:18;18.80;92.80
23562;DHT22;11959;49.418;8.728;2022-08-11T05:59:46;18.90;93.00
23562;DHT22;11959;49.418;8.728;2022-08-11T06:02:13;19.00;92.60
23562;DHT22;11959;49.418;8.728;2022-08-11T06:04:39;19.10;91.30
23562;DHT22;11959;49.418;8.728;2022-08-11T06:07:10;19.20;91.10
23562;DHT22;11959;49.418;8.728;2022-08-11T06:09:46;19.20;91.70
23562;DHT22;11959;49.418;8.728;2022-08-11T06:14:48;19.40;91.80
23562;DHT22;11959;49.418;8.728;2022-08-11T06:17:25;19.50;91.70
23562;DHT22;11959;49.418;8.728;2022-08-11T06:20:05;19.60;91.60
23562;DHT22;11959;49.418;8.728;2022-08-11T06:22:32;19.60;91.40
23562;DHT22;11959;49.418;8.728;2022-08-11T06:25:00;19.70;90.70
23562;DHT22;11959;49.418;8.728;2022-08-11T06:27:32;19.80;90.00
23562;DHT22;11959;49.418;8.728;2022-08-11T06:30:00;20.00;90.10
23562;DHT22;11959;49.418;8.728;2022-08-11T06:32:30;20.10;90.90
23562;DHT22;11959;49.418;8.728;2022-08-11T06:38:11;20.20;90.50
23562;DHT22;11959;49.418;8.728;2022-08-11T06:41:00;20.30;89.90
23562;DHT22;11959;49.418;8.728;2022-08-11T06:46:14;20.50;89.50
23562;DHT22;11959;49.418;8.728;2022-08-11T06:48:43;20.60;89.60
23562;DHT22;11959;49.418;8.728;2022-08-11T06:51:09;20.70;89.30
23562;DHT22;11959;49.418;8.728;2022-08-11T06:53:46;20.90;88.80
23562;DHT22;11959;49.418;8.728;2022-08-11T06:56:20;20.90;88.60
23562;DHT22;11959;49.418;8.728;2022-08-11T06:59:05;21.00;87.00
23562;DHT22;11959;49.418;8.728;2022-08-11T07:04:47;21.20;87.00
23562;DHT22;11959;49.418;8.728;2022-08-11T07:10:20;21.40;87.00
23562;DHT22;11959;49.418;8.728;2022-08-11T07:13:07;21.50;85.80
23562;DHT22;11959;49.418;8.728;2022-08-11T07:15:55;21.70;86.00
23562;DHT22;11959;49.418;8.728;2022-08-11T07:18:30;21.80;85.10
23562;DHT22;11959;49.418;8.728;2022-08-11T07:21:30;21.90;85.50
23562;DHT22;11959;49.418;8.728;2022-08-11T07:24:21;22.10;83.70
23562;DHT22;11959;49.418;8.728;2022-08-11T07:27:13;22.20;83.20
23562;DHT22;11959;49.418;8.728;2022-08-11T07:30:00;22.50;82.00
23562;DHT22;11959;49.418;8.728;2022-08-11T07:32:34;22.60;81.80
23562;DHT22;11959;49.418;8.728;2022-08-11T07:35:09;22.80;81.90
23562;DHT22;11959;49.418;8.728;2022-08-11T07:37:42;22.90;81.80
23562;DHT22;11959;49.418;8.728;2022-08-11T07:40:12;23.00;80.70
23562;DHT22;11959;49.418;8.728;2022-08-11T07:42:39;23.10;80.40
23562;DHT22;11959;49.418;8.728;2022-08-11T07:45:11;23.20;79.10
23562;DHT22;11959;49.418;8.728;2022-08-11T07:48:01;23.30;79.30
23562;DHT22;11959;49.418;8.728;2022-08-11T07:50:45;23.40;79.50
23562;DHT22;11959;49.418;8.728;2022-08-11T07:53:30;23.40;79.20
23562;DHT22;11959;49.418;8.728;2022-08-11T07:55:59;23.50;79.00
23562;DHT22;11959;49.418;8.728;2022-08-11T07:58:27;23.60;78.00
23562;DHT22;11959;49.418;8.728;2022-08-11T08:01:18;23.70;78.60
23562;DHT22;11959;49.418;8.728;2022-08-11T08:04:04;23.80;77.80
23562;DHT22;11959;49.418;8.728;2022-08-11T08:06:49;23.80;77.50
23562;DHT22;11959;49.418;8.728;2022-08-11T08:09:34;23.90;77.70
23562;DHT22;11959;49.418;8.728;2022-08-11T08:12:23;24.00;76.80
23562;DHT22;11959;49.418;8.728;2022-08-11T08:15:08;24.00;76.70
23562;DHT22;11959;49.418;8.728;2022-08-11T08:17:56;24.20;76.70
23562;DHT22;11959;49.418;8.728;2022-08-11T08:20:38;24.30;77.00
23562;DHT22;11959;49.418;8.728;2022-08-11T08:23:06;24.40;76.80
23562;DHT22;11959;49.418;8.728;2022-08-11T08:25:37;24.50;76.60
23562;DHT22;11959;49.418;8.728;2022-08-11T08:28:10;24.50;76.90
23562;DHT22;11959;49.418;8.728;2022-08-11T08:30:39;24.60;76.60
23562;DHT22;11959;49.418;8.728;2022-08-11T08:35:47;24.70;75.60
23562;DHT22;11959;49.418;8.728;2022-08-11T08:38:13;24.70;77.20
23562;DHT22;11959;49.418;8.728;2022-08-11T08:40:41;24.80;75.60
23562;DHT22;11959;49.418;8.728;2022-08-11T08:43:11;24.90;75.50
23562;DHT22;11959;49.418;8.728;2022-08-11T08:45:41;25.00;74.60
23562;DHT22;11959;49.418;8.728;2022-08-11T08:48:13;25.10;75.30
23562;DHT22;11959;49.418;8.728;2022-08-11T08:50:51;25.10;74.70
23562;DHT22;11959;49.418;8.728;2022-08-11T08:53:39;25.20;75.00
23562;DHT22;11959;49.418;8.728;2022-08-11T08:56:06;25.40;74.50
23562;DHT22;11959;49.418;8.728;2022-08-11T08:58:35;25.40;75.10
23562;DHT22;11959;49.418;8.728;2022-08-11T09:01:02;25.50;74.50
23562;DHT22;11959;49.418;8.728;2022-08-11T09:03:29;25.60;74.40
23562;DHT22;11959;49.418;8.728;2022-08-11T09:05:55;25.70;73.10
23562;DHT22;11959;49.418;8.728;2022-08-11T09:08:21;25.80;73.10
23562;DHT22;11959;49.418;8.728;2022-08-11T09:10:48;25.90;72.60
23562;DHT22;11959;49.418;8.728;2022-08-11T09:13:35;25.90;72.70
23562;DHT22;11959;49.418;8.728;2022-08-11T09:16:05;26.00;72.60
23562;DHT22;11959;49.418;8.728;2022-08-11T09:18:31;26.10;71.80
23562;DHT22;11959;49.418;8.728;2022-08-11T09:20:58;26.20;72.00
23562;DHT22;11959;49.418;8.728;2022-08-11T09:23:26;26.20;71.70
23562;DHT22;11959;49.418;8.728;2022-08-11T09:26:10;26.30;72.10
23562;DHT22;11959;49.418;8.728;2022-08-11T09:28:57;26.40;70.60
23562;DHT22;11959;49.418;8.728;2022-08-11T09:31:23;26.50;70.40
23562;DHT22;11959;49.418;8.728;2022-08-11T09:33:53;26.60;70.40
23562;DHT22;11959;49.418;8.728;2022-08-11T09:36:19;26.70;70.20
23562;DHT22;11959;49.418;8.728;2022-08-11T09:39:05;26.80;69.30
23562;DHT22;11959;49.418;8.728;2022-08-11T09:41:50;26.80;69.30
23562;DHT22;11959;49.418;8.728;2022-08-11T09:44:16;26.90;68.90
23562;DHT22;11959;49.418;8.728;2022-08-11T09:47:01;27.00;68.70
23562;DHT22;11959;49.418;8.728;2022-08-11T09:49:28;27.00;68.60
23562;DHT22;11959;49.418;8.728;2022-08-11T09:51:55;27.20;67.80
23562;DHT22;11959;49.418;8.728;2022-08-11T09:54:23;27.30;66.70
23562;DHT22;11959;49.418;8.728;2022-08-11T09:56:51;27.40;67.40
23562;DHT22;11959;49.418;8.728;2022-08-11T09:59:36;27.50;66.50
23562;DHT22;11959;49.418;8.728;2022-08-11T10:02:03;27.60;67.30
23562;DHT22;11959;49.418;8.728;2022-08-11T10:04:39;27.70;66.60
23562;DHT22;11959;49.418;8.728;2022-08-11T10:07:05;27.90;66.80
23562;DHT22;11959;49.418;8.728;2022-08-11T10:10:02;28.00;66.80
23562;DHT22;11959;49.418;8.728;2022-08-11T10:12:33;28.20;65.20
23562;DHT22;11959;49.418;8.728;2022-08-11T10:15:06;28.30;64.10
23562;DHT22;11959;49.418;8.728;2022-08-11T10:17:56;28.40;65.20
23562;DHT22;11959;49.418;8.728;2022-08-11T10:20:42;28.50;63.80
23562;DHT22;11959;49.418;8.728;2022-08-11T10:23:10;28.50;63.70
23562;DHT22;11959;49.418;8.728;2022-08-11T10:25:56;28.40;63.70
23562;DHT22;11959;49.418;8.728;2022-08-11T10:28:40;28.50;64.50
23562;DHT22;11959;49.418;8.728;2022-08-11T10:31:07;28.60;63.40
23562;DHT22;11959;49.418;8.728;2022-08-11T10:33:52;28.70;62.20
23562;DHT22;11959;49.418;8.728;2022-08-11T10:36:32;28.80;62.40
23562;DHT22;11959;49.418;8.728;2022-08-11T10:39:00;29.00;62.70
23562;DHT22;11959;49.418;8.728;2022-08-11T10:41:27;29.00;62.10
23562;DHT22;11959;49.418;8.728;2022-08-11T10:44:11;29.00;61.90
23562;DHT22;11959;49.418;8.728;2022-08-11T10:46:38;29.00;61.90
23562;DHT22;11959;49.418;8.728;2022-08-11T10:49:24;29.20;62.60
23562;DHT22;11959;49.418;8.728;2022-08-11T10:51:52;29.30;62.90
23562;DHT22;11959;49.418;8.728;2022-08-11T10:54:39;29.20;62.70
23562;DHT22;11959;49.418;8.728;2022-08-11T10:57:25;29.30;62.70
23562;DHT22;11959;49.418;8.728;2022-08-11T11:00:10;29.40;62.00
23562;DHT22;11959;49.418;8.728;2022-08-11T11:02:43;29.40;62.00
23562;DHT22;11959;49.418;8.728;2022-08-11T11:05:13;29.60;62.00
23562;DHT22;11959;49.418;8.728;2022-08-11T11:07:49;29.70;62.00
23562;DHT22;11959;49.418;8.728;2022-08-11T11:10:17;29.70;61.20
23562;DHT22;11959;49.418;8.728;2022-08-11T11:12:45;29.80;61.90
23562;DHT22;11959;49.418;8.728;2022-08-11T11:15:33;29.90;62.50
23562;DHT22;11959;49.418;8.728;2022-08-11T11:18:27;30.00;62.10
23562;DHT22;11959;49.418;8.728;2022-08-11T11:21:10;30.00;61.80
23562;DHT22;11959;49.418;8.728;2022-08-11T11:24:05;30.00;61.60
23562;DHT22;11959;49.418;8.728;2022-08-11T11:27:07;30.00;61.50
23562;DHT22;11959;49.418;8.728;2022-08-11T11:30:04;30.00;61.40
23562;DHT22;11959;49.418;8.728;2022-08-11T11:37:34;30.20;60.90
23562;DHT22;11959;49.418;8.728;2022-08-11T11:40:11;30.20;60.50
23562;DHT22;11959;49.418;8.728;2022-08-11T11:42:43;30.20;61.30
23562;DHT22;11959;49.418;8.728;2022-08-11T11:45:10;30.30;59.90
23562;DHT22;11959;49.418;8.728;2022-08-11T11:47:39;30.20;59.80
23562;DHT22;11959;49.418;8.728;2022-08-11T11:50:06;30.20;59.90
23562;DHT22;11959;49.418;8.728;2022-08-11T11:52:33;30.30;59.70
23562;DHT22;11959;49.418;8.728;2022-08-11T11:55:00;30.30;60.00
23562;DHT22;11959;49.418;8.728;2022-08-11T11:57:27;30.40;60.20
23562;DHT22;11959;49.418;8.728;2022-08-11T12:00:12;30.30;60.00
23562;DHT22;11959;49.418;8.728;2022-08-11T12:02:58;30.30;59.20
23562;DHT22;11959;49.418;8.728;2022-08-11T12:05:26;30.20;59.20
23562;DHT22;11959;49.418;8.728;2022-08-11T12:07:52;30.30;59.30
23562;DHT22;11959;49.418;8.728;2022-08-11T12:10:40;30.20;59.20
23562;DHT22;11959;49.418;8.728;2022-08-11T12:13:07;30.30;59.10
23562;DHT22;11959;49.418;8.728;2022-08-11T12:15:52;30.20;59.50
23562;DHT22;11959;49.418;8.728;2022-08-11T12:18:18;30.30;59.10
23562;DHT22;11959;49.418;8.728;2022-08-11T12:20:44;30.40;59.70
23562;DHT22;11959;49.418;8.728;2022-08-11T12:23:12;30.40;59.70
23562;DHT22;11959;49.418;8.728;2022-08-11T12:25:57;30.40;59.30
23562;DHT22;11959;49.418;8.728;2022-08-11T12:28:43;30.30;59.50
23562;DHT22;11959;49.418;8.728;2022-08-11T12:31:09;30.30;59.70
23562;DHT22;11959;49.418;8.728;2022-08-11T12:33:39;30.40;60.20
23562;DHT22;11959;49.418;8.728;2022-08-11T12:36:09;30.40;59.30
23562;DHT22;11959;49.418;8.728;2022-08-11T12:38:36;30.40;59.80
23562;DHT22;11959;49.418;8.728;2022-08-11T12:41:03;30.50;58.90
23562;DHT22;11959;49.418;8.728;2022-08-11T12:43:47;30.40;59.50
23562;DHT22;11959;49.418;8.728;2022-08-11T12:46:34;30.50;59.80
23562;DHT22;11959;49.418;8.728;2022-08-11T12:49:12;30.50;60.60
23562;DHT22;11959;49.418;8.728;2022-08-11T12:52:02;30.50;59.50
23562;DHT22;11959;49.418;8.728;2022-08-11T12:54:48;30.40;60.00
23562;DHT22;11959;49.418;8.728;2022-08-11T12:57:19;30.40;59.90
23562;DHT22;11959;49.418;8.728;2022-08-11T13:00:06;30.30;59.20
23562;DHT22;11959;49.418;8.728;2022-08-11T13:02:51;30.30;58.80
23562;DHT22;11959;49.418;8.728;2022-08-11T13:05:37;30.20;58.40
23562;DHT22;11959;49.418;8.728;2022-08-11T13:08:03;30.20;58.50
23562;DHT22;11959;49.418;8.728;2022-08-11T13:10:31;30.20;59.30
23562;DHT22;11959;49.418;8.728;2022-08-11T13:13:17;30.10;59.30
23562;DHT22;11959;49.418;8.728;2022-08-11T13:15:47;30.10;59.20
23562;DHT22;11959;49.418;8.728;2022-08-11T13:18:18;30.00;59.60
23562;DHT22;11959;49.418;8.728;2022-08-11T13:20:48;30.10;59.30
23562;DHT22;11959;49.418;8.728;2022-08-11T13:23:16;30.00;59.40
23562;DHT22;11959;49.418;8.728;2022-08-11T13:25:42;30.10;59.40
23562;DHT22;11959;49.418;8.728;2022-08-11T13:28:09;30.10;59.50
23562;DHT22;11959;49.418;8.728;2022-08-11T13:30:35;30.00;59.40
23562;DHT22;11959;49.418;8.728;2022-08-11T13:33:20;30.00;59.20
23562;DHT22;11959;49.418;8.728;2022-08-11T13:35:49;30.10;58.50
23562;DHT22;11959;49.418;8.728;2022-08-11T13:38:17;30.00;58.60
23562;DHT22;11959;49.418;8.728;2022-08-11T13:40:44;30.00;59.50
23562;DHT22;11959;49.418;8.728;2022-08-11T13:43:12;30.20;60.30
23562;DHT22;11959;49.418;8.728;2022-08-11T13:45:38;30.20;59.70
23562;DHT22;11959;49.418;8.728;2022-08-11T13:48:09;30.30;60.10
23562;DHT22;11959;49.418;8.728;2022-08-11T13:50:35;30.30;59.10
23562;DHT22;11959;49.418;8.728;2022-08-11T13:53:23;30.40;59.50
23562;DHT22;11959;49.418;8.728;2022-08-11T13:55:49;30.40;58.20
23562;DHT22;11959;49.418;8.728;2022-08-11T13:58:16;30.40;58.70
23562;DHT22;11959;49.418;8.728;2022-08-11T14:00:44;30.40;58.70
23562;DHT22;11959;49.418;8.728;2022-08-11T14:03:13;30.40;59.10
23562;DHT22;11959;49.418;8.728;2022-08-11T14:05:41;30.40;59.20
23562;DHT22;11959;49.418;8.728;2022-08-11T14:08:11;30.40;59.30
23562;DHT22;11959;49.418;8.728;2022-08-11T14:10:38;30.40;59.70
23562;DHT22;11959;49.418;8.728;2022-08-11T14:13:09;30.40;59.60
23562;DHT22;11959;49.418;8.728;2022-08-11T14:15:59;30.40;59.70
23562;DHT22;11959;49.418;8.728;2022-08-11T14:18:29;30.40;59.00
23562;DHT22;11959;49.418;8.728;2022-08-11T14:20:58;30.50;59.30
23562;DHT22;11959;49.418;8.728;2022-08-11T14:23:48;30.60;60.90
23562;DHT22;11959;49.418;8.728;2022-08-11T14:26:16;30.60;59.30
23562;DHT22;11959;49.418;8.728;2022-08-11T14:28:50;30.60;59.20
23562;DHT22;11959;49.418;8.728;2022-08-11T14:31:21;30.70;58.20
23562;DHT22;11959;49.418;8.728;2022-08-11T14:33:47;30.70;58.40
23562;DHT22;11959;49.418;8.728;2022-08-11T14:36:13;30.70;58.30
23562;DHT22;11959;49.418;8.728;2022-08-11T14:38:40;30.70;58.90
23562;DHT22;11959;49.418;8.728;2022-08-11T14:41:07;30.70;58.90
23562;DHT22;11959;49.418;8.728;2022-08-11T14:43:53;30.70;58.30
23562;DHT22;11959;49.418;8.728;2022-08-11T14:46:39;30.70;58.20
23562;DHT22;11959;49.418;8.728;2022-08-11T14:49:25;30.70;58.50
23562;DHT22;11959;49.418;8.728;2022-08-11T14:51:52;30.70;58.30
23562;DHT22;11959;49.418;8.728;2022-08-11T14:54:25;30.70;58.00
23562;DHT22;11959;49.418;8.728;2022-08-11T14:57:10;30.70;58.10
23562;DHT22;11959;49.418;8.728;2022-08-11T14:59:37;30.70;58.10
23562;DHT22;11959;49.418;8.728;2022-08-11T15:02:04;30.80;57.80
23562;DHT22;11959;49.418;8.728;2022-08-11T15:04:49;30.70;57.60
23562;DHT22;11959;49.418;8.728;2022-08-11T15:07:15;30.80;58.30
23562;DHT22;11959;49.418;8.728;2022-08-11T15:09:42;30.70;58.90
23562;DHT22;11959;49.418;8.728;2022-08-11T15:12:13;30.70;58.00
23562;DHT22;11959;49.418;8.728;2022-08-11T15:14:44;30.70;57.60
23562;DHT22;11959;49.418;8.728;2022-08-11T15:17:30;30.60;58.80
23562;DHT22;11959;49.418;8.728;2022-08-11T15:20:05;30.60;58.50
23562;DHT22;11959;49.418;8.728;2022-08-11T15:22:50;30.60;58.70
23562;DHT22;11959;49.418;8.728;2022-08-11T15:25:34;30.60;57.40
23562;DHT22;11959;49.418;8.728;2022-08-11T15:28:02;30.70;58.10
23562;DHT22;11959;49.418;8.728;2022-08-11T15:30:50;30.70;58.40
23562;DHT22;11959;49.418;8.728;2022-08-11T15:33:36;30.80;58.20
23562;DHT22;11959;49.418;8.728;2022-08-11T15:36:22;30.90;58.00
23562;DHT22;11959;49.418;8.728;2022-08-11T15:39:35;30.90;58.60
23562;DHT22;11959;49.418;8.728;2022-08-11T15:42:10;31.00;57.80
23562;DHT22;11959;49.418;8.728;2022-08-11T15:44:58;31.00;58.60
23562;DHT22;11959;49.418;8.728;2022-08-11T15:48:05;31.10;59.30
23562;DHT22;11959;49.418;8.728;2022-08-11T15:50:33;31.10;58.00
23562;DHT22;11959;49.418;8.728;2022-08-11T15:53:17;31.00;58.30
23562;DHT22;11959;49.418;8.728;2022-08-11T15:55:45;31.00;57.50
23562;DHT22;11959;49.418;8.728;2022-08-11T15:58:12;31.10;57.40
23562;DHT22;11959;49.418;8.728;2022-08-11T16:00:57;31.10;57.90
23562;DHT22;11959;49.418;8.728;2022-08-11T16:03:51;31.20;58.10
23562;DHT22;11959;49.418;8.728;2022-08-11T16:07:06;31.20;57.80
23562;DHT22;11959;49.418;8.728;2022-08-11T16:10:11;31.20;56.80
23562;DHT22;11959;49.418;8.728;2022-08-11T16:12:59;31.20;57.20
23562;DHT22;11959;49.418;8.728;2022-08-11T16:15:34;31.20;57.70
23562;DHT22;11959;49.418;8.728;2022-08-11T16:18:22;31.20;56.70
23562;DHT22;11959;49.418;8.728;2022-08-11T16:20:50;31.20;57.10
23562;DHT22;11959;49.418;8.728;2022-08-11T16:23:25;31.30;57.30
23562;DHT22;11959;49.418;8.728;2022-08-11T16:25:52;31.30;57.30
23562;DHT22;11959;49.418;8.728;2022-08-11T16:28:20;31.30;57.30
23562;DHT22;11959;49.418;8.728;2022-08-11T16:30:47;31.20;56.60
23562;DHT22;11959;49.418;8.728;2022-08-11T16:33:14;31.20;56.80
23562;DHT22;11959;49.418;8.728;2022-08-11T16:35:43;31.20;57.40
23562;DHT22;11959;49.418;8.728;2022-08-11T16:38:29;31.20;57.10
23562;DHT22;11959;49.418;8.728;2022-08-11T16:41:04;31.20;56.80
23562;DHT22;11959;49.418;8.728;2022-08-11T16:43:34;31.10;57.30
23562;DHT22;11959;49.418;8.728;2022-08-11T16:46:22;31.00;57.00
23562;DHT22;11959;49.418;8.728;2022-08-11T16:49:11;31.00;57.20
23562;DHT22;11959;49.418;8.728;2022-08-11T16:51:37;31.00;57.10
23562;DHT22;11959;49.418;8.728;2022-08-11T16:54:03;31.00;57.60
23562;DHT22;11959;49.418;8.728;2022-08-11T16:56:41;30.90;58.10
23562;DHT22;11959;49.418;8.728;2022-08-11T16:59:14;30.90;57.80
23562;DHT22;11959;49.418;8.728;2022-08-11T17:04:19;30.90;57.50
23562;DHT22;11959;49.418;8.728;2022-08-11T17:07:05;30.80;57.60
23562;DHT22;11959;49.418;8.728;2022-08-11T17:09:51;30.80;58.70
23562;DHT22;11959;49.418;8.728;2022-08-11T17:12:37;30.80;58.80
23562;DHT22;11959;49.418;8.728;2022-08-11T17:15:24;30.70;58.30
23562;DHT22;11959;49.418;8.728;2022-08-11T17:18:12;30.60;58.00
23562;DHT22;11959;49.418;8.728;2022-08-11T17:21:00;30.50;58.90
23562;DHT22;11959;49.418;8.728;2022-08-11T17:23:28;30.40;59.20
23562;DHT22;11959;49.418;8.728;2022-08-11T17:26:43;30.40;59.90
23562;DHT22;11959;49.418;8.728;2022-08-11T17:31:54;30.30;59.30
23562;DHT22;11959;49.418;8.728;2022-08-11T17:34:41;30.30;59.60
23562;DHT22;11959;49.418;8.728;2022-08-11T17:37:28;30.30;59.20
23562;DHT22;11959;49.418;8.728;2022-08-11T17:39:56;30.30;59.60
23562;DHT22;11959;49.418;8.728;2022-08-11T17:42:23;30.30;59.10
23562;DHT22;11959;49.418;8.728;2022-08-11T17:45:10;30.30;59.80
23562;DHT22;11959;49.418;8.728;2022-08-11T17:47:55;30.20;59.30
23562;DHT22;11959;49.418;8.728;2022-08-11T17:50:40;30.10;59.40
23562;DHT22;11959;49.418;8.728;2022-08-11T17:53:07;30.00;59.50
23562;DHT22;11959;49.418;8.728;2022-08-11T17:55:52;29.80;60.00
23562;DHT22;11959;49.418;8.728;2022-08-11T17:58:38;29.60;61.00
23562;DHT22;11959;49.418;8.728;2022-08-11T18:01:24;29.30;61.70
23562;DHT22;11959;49.418;8.728;2022-08-11T18:03:51;29.00;61.70
23562;DHT22;11959;49.418;8.728;2022-08-11T18:06:18;28.70;61.90
23562;DHT22;11959;49.418;8.728;2022-08-11T18:08:46;28.50;62.40
23562;DHT22;11959;49.418;8.728;2022-08-11T18:11:34;28.20;62.90
23562;DHT22;11959;49.418;8.728;2022-08-11T18:14:20;27.90;63.10
23562;DHT22;11959;49.418;8.728;2022-08-11T18:17:05;27.70;63.10
23562;DHT22;11959;49.418;8.728;2022-08-11T18:19:49;27.60;63.30
23562;DHT22;11959;49.418;8.728;2022-08-11T18:22:40;27.40;63.00
23562;DHT22;11959;49.418;8.728;2022-08-11T18:25:30;27.20;62.80
23562;DHT22;11959;49.418;8.728;2022-08-11T18:28:20;27.10;63.20
23562;DHT22;11959;49.418;8.728;2022-08-11T18:31:09;27.00;63.70
23562;DHT22;11959;49.418;8.728;2022-08-11T18:33:56;26.80;64.00
23562;DHT22;11959;49.418;8.728;2022-08-11T18:37:02;26.70;64.80
23562;DHT22;11959;49.418;8.728;2022-08-11T18:39:59;26.60;64.70
23562;DHT22;11959;49.418;8.728;2022-08-11T18:42:47;26.40;65.40
23562;DHT22;11959;49.418;8.728;2022-08-11T18:45:35;26.30;66.50
23562;DHT22;11959;49.418;8.728;2022-08-11T18:48:23;26.20;66.40
23562;DHT22;11959;49.418;8.728;2022-08-11T18:51:09;26.00;66.00
23562;DHT22;11959;49.418;8.728;2022-08-11T18:53:59;25.90;66.70
23562;DHT22;11959;49.418;8.728;2022-08-11T18:56:45;25.80;67.20
23562;DHT22;11959;49.418;8.728;2022-08-11T18:59:34;25.70;67.00
23562;DHT22;11959;49.418;8.728;2022-08-11T19:02:24;25.50;67.00
23562;DHT22;11959;49.418;8.728;2022-08-11T19:05:10;25.30;67.10
23562;DHT22;11959;49.418;8.728;2022-08-11T19:07:57;25.20;67.60
23562;DHT22;11959;49.418;8.728;2022-08-11T19:10:44;25.00;67.80
23562;DHT22;11959;49.418;8.728;2022-08-11T19:13:31;24.90;69.00
23562;DHT22;11959;49.418;8.728;2022-08-11T19:16:17;24.80;69.00
23562;DHT22;11959;49.418;8.728;2022-08-11T19:19:04;24.60;67.90
23562;DHT22;11959;49.418;8.728;2022-08-11T19:21:51;24.50;69.30
23562;DHT22;11959;49.418;8.728;2022-08-11T19:24:38;24.40;69.40
23562;DHT22;11959;49.418;8.728;2022-08-11T19:27:24;24.30;68.80
23562;DHT22;11959;49.418;8.728;2022-08-11T19:30:10;24.20;69.50
23562;DHT22;11959;49.418;8.728;2022-08-11T19:32:54;24.00;69.00
23562;DHT22;11959;49.418;8.728;2022-08-11T19:35:40;24.00;69.80
23562;DHT22;11959;49.418;8.728;2022-08-11T19:38:25;23.90;70.10
23562;DHT22;11959;49.418;8.728;2022-08-11T19:41:10;23.90;69.90
23562;DHT22;11959;49.418;8.728;2022-08-11T19:43:56;23.80;69.50
23562;DHT22;11959;49.418;8.728;2022-08-11T19:46:40;23.70;69.90
23562;DHT22;11959;49.418;8.728;2022-08-11T19:49:25;23.70;69.30
23562;DHT22;11959;49.418;8.728;2022-08-11T19:52:10;23.60;69.70
23562;DHT22;11959;49.418;8.728;2022-08-11T19:54:55;23.60;70.00
23562;DHT22;11959;49.418;8.728;2022-08-11T19:57:41;23.60;70.90
23562;DHT22;11959;49.418;8.728;2022-08-11T20:00:25;23.60;70.70
23562;DHT22;11959;49.418;8.728;2022-08-11T20:03:11;23.50;70.90